SAZB/BHI METAR and TAF weather

Enter ICAO airport designator
Station Type Date Time Source
SAZB METAR 2019/04/14 03:16 UTC NOAA

SAZB 140316Z 02006KT 9999 -TSRA FEW040CB 12/07 Q1008


Station Type Date Time Source
SAZB Decoded METAR 2019/04/14 03:16 UTC NOAA

Bahia Blanca Aerodrome, Argentina (SAZB) 38-44S 062-10W 83M
Apr 13, 2019 - 11:16 PM EDT / 2019.04.14 0316 UTC
Wind: from the NNE (020 degrees) at 7 MPH (6 KT):0
Visibility: greater than 7 mile(s):0
Sky conditions: mostly clear
Weather: light rain with thunder; Cumulonimbus clouds observed
Temperature: 53 F (12 C)
Dew Point: 44 F (7 C)
Relative Humidity: 71%
Pressure (altimeter): 29.77 in. Hg (1008 hPa)
ob: SAZB 140316Z 02006KT 9999 -TSRA FEW040CB 12/07 Q1008
cycle: 3

Station Type Date Time Source
SAZB TAF 2019/04/15 06:06 UTC NOAA

TAF SAZB 150500Z 1506/1606 02010KT CAVOK TX23/1518Z TN05/1510Z PROB40
TEMPO 1508/1511 VRB03KT 4000 BR
BECMG 1512/1515 29005KT CAVOK

Example: see airport list